createdAt,value
2022-09-17T00:01:41.581Z,83.52
2022-09-17T00:04:10.783Z,82.66
2022-09-17T00:06:38.628Z,84.09
2022-09-17T00:09:07.988Z,83.33
2022-09-17T00:11:38.004Z,84.39
2022-09-17T00:14:09.164Z,83.52
2022-09-17T00:16:38.599Z,84.48
2022-09-17T00:19:11.201Z,85.56
2022-09-17T00:21:38.893Z,85.45
2022-09-17T00:24:07.957Z,85.93
2022-09-17T00:26:36.663Z,84.81
2022-09-17T00:29:05.763Z,83.52
2022-09-17T00:31:33.587Z,83.73
2022-09-17T00:34:03.595Z,83.45
2022-09-17T00:36:35.072Z,85.45
2022-09-17T00:39:04.312Z,83.01
2022-09-17T00:41:33.764Z,82.69
2022-09-17T00:44:22.484Z,82.40
2022-09-17T00:46:53.302Z,82.51
2022-09-17T00:49:27.680Z,81.55
2022-09-17T00:52:00.869Z,82.14
2022-09-17T00:54:29.204Z,82.19
2022-09-17T00:56:58.124Z,82.59
2022-09-17T00:59:26.508Z,82.36
2022-09-17T01:01:57.802Z,82.51
2022-09-17T01:04:28.340Z,83.08
2022-09-17T01:07:06.959Z,82.20
2022-09-17T01:09:43.070Z,82.60
2022-09-17T01:12:27.048Z,81.57
2022-09-17T01:15:06.979Z,83.65
2022-09-17T01:17:44.178Z,84.26
2022-09-17T01:20:41.863Z,83.11
2022-09-17T01:23:37.606Z,81.59
2022-09-17T01:26:28.100Z,83.13
2022-09-17T01:29:05.112Z,82.36
2022-09-17T01:31:42.015Z,83.14
2022-09-17T01:34:20.104Z,82.34
2022-09-17T01:37:03.258Z,83.46
2022-09-17T01:39:39.021Z,82.83
2022-09-17T01:42:18.623Z,82.20
2022-09-17T01:44:54.755Z,83.72
2022-09-17T01:47:28.103Z,83.23
2022-09-17T01:50:01.452Z,83.83
2022-09-17T01:52:32.561Z,84.48
2022-09-17T01:55:04.722Z,83.68
2022-09-17T01:57:37.286Z,85.14
2022-09-17T02:00:09.647Z,84.53
2022-09-17T02:02:46.354Z,83.77
2022-09-17T02:05:20.204Z,84.00
2022-09-17T02:07:53.468Z,85.70
2022-09-17T02:10:25.493Z,85.24
2022-09-17T02:12:59.785Z,85.68
2022-09-17T02:15:30.203Z,85.16
2022-09-17T02:18:04.809Z,85.29
2022-09-17T02:20:41.847Z,84.49
2022-09-17T02:23:15.411Z,84.94
2022-09-17T02:25:45.280Z,84.49
2022-09-17T02:28:17.306Z,85.07
2022-09-17T02:30:45.041Z,85.76
2022-09-17T02:33:15.952Z,86.03
2022-09-17T02:35:47.028Z,85.04
2022-09-17T02:38:14.606Z,85.11
2022-09-17T02:40:47.257Z,85.11
2022-09-17T02:43:23.181Z,84.74
2022-09-17T02:46:02.430Z,84.13
2022-09-17T02:48:50.090Z,85.25
2022-09-17T02:51:29.158Z,86.95
2022-09-17T02:54:06.733Z,88.08
2022-09-17T02:56:46.046Z,87.10
2022-09-17T02:59:20.824Z,87.57
2022-09-17T03:01:57.859Z,87.07
2022-09-17T03:04:29.285Z,87.43
2022-09-17T03:06:58.588Z,86.23
2022-09-17T03:09:26.141Z,86.61
2022-09-17T03:11:53.671Z,87.19
2022-09-17T03:14:21.272Z,86.97
2022-09-17T03:16:48.852Z,86.33
2022-09-17T03:19:16.453Z,86.13
2022-09-17T03:21:45.536Z,86.31
2022-09-17T03:24:13.427Z,87.14
2022-09-17T03:26:40.947Z,89.19
2022-09-17T03:29:08.460Z,86.67
2022-09-17T03:31:36.153Z,87.54
2022-09-17T03:34:03.771Z,86.90
2022-09-17T03:36:31.414Z,87.09
2022-09-17T03:39:00.605Z,87.91
2022-09-17T03:41:28.249Z,87.18
2022-09-17T03:43:55.772Z,88.02
2022-09-17T03:46:23.290Z,87.05
2022-09-17T03:48:50.941Z,88.11
2022-09-17T03:51:18.514Z,86.67
2022-09-17T03:53:46.022Z,87.46
2022-09-17T03:56:14.948Z,86.82
2022-09-17T03:58:42.470Z,87.99
2022-09-17T04:01:10.211Z,86.73
2022-09-17T04:03:37.889Z,87.36
2022-09-17T04:06:05.475Z,87.39
2022-09-17T04:08:33.816Z,87.64
2022-09-17T04:11:01.333Z,88.11
2022-09-17T04:13:30.192Z,88.94
2022-09-17T04:15:57.768Z,88.87
2022-09-17T04:18:25.408Z,88.75
2022-09-17T04:20:53.055Z,88.58
2022-09-17T04:23:21.075Z,86.87
2022-09-17T04:25:48.584Z,87.85
2022-09-17T04:28:16.773Z,86.62
2022-09-17T04:30:45.630Z,87.44
2022-09-17T04:33:13.174Z,86.76
2022-09-17T04:35:40.712Z,88.05
2022-09-17T04:38:08.255Z,85.88
2022-09-17T04:40:36.017Z,86.68
2022-09-17T04:43:04.086Z,85.67
2022-09-17T04:45:33.337Z,86.21
2022-09-17T04:48:02.812Z,86.57
2022-09-17T04:50:30.390Z,86.52
2022-09-17T04:52:58.632Z,85.71
2022-09-17T04:55:27.677Z,85.55
2022-09-17T04:57:55.545Z,86.57
2022-09-17T05:00:24.359Z,87.31
2022-09-17T05:02:53.429Z,85.88
2022-09-17T05:05:23.624Z,85.01
2022-09-17T05:07:51.288Z,85.99
2022-09-17T05:10:20.729Z,85.39
2022-09-17T05:12:49.720Z,84.21
2022-09-17T05:15:18.013Z,84.04
2022-09-17T05:17:45.783Z,85.28
2022-09-17T05:20:14.013Z,84.17
2022-09-17T05:22:44.743Z,84.66
2022-09-17T05:25:12.565Z,84.14
2022-09-17T05:27:40.607Z,85.66
2022-09-17T05:30:10.069Z,84.75
2022-09-17T05:32:38.970Z,83.37
2022-09-17T05:35:08.049Z,84.79
2022-09-17T05:37:35.615Z,84.29
2022-09-17T05:40:05.940Z,84.23
2022-09-17T05:42:33.656Z,83.94
2022-09-17T05:45:01.258Z,83.36
2022-09-17T05:47:28.801Z,84.23
2022-09-17T05:49:56.767Z,85.17
2022-09-17T05:52:28.003Z,84.99
2022-09-17T05:54:55.734Z,84.24
2022-09-17T05:57:24.779Z,82.98
2022-09-17T05:59:52.454Z,83.89
2022-09-17T06:02:20.115Z,83.98
2022-09-17T06:04:47.661Z,86.87
2022-09-17T06:07:15.249Z,84.25
2022-09-17T06:09:42.802Z,84.73
2022-09-17T06:12:10.334Z,86.29
2022-09-17T06:14:39.246Z,88.29
2022-09-17T06:17:06.752Z,87.48
2022-09-17T06:19:34.275Z,88.07
2022-09-17T06:22:02.113Z,84.39
2022-09-17T06:24:29.692Z,86.51
2022-09-17T06:26:57.220Z,86.51
2022-09-17T06:29:25.068Z,87.16
2022-09-17T06:31:54.055Z,87.11
2022-09-17T06:34:21.609Z,88.05
2022-09-17T06:36:49.661Z,91.88
2022-09-17T06:39:17.434Z,87.30
2022-09-17T06:41:46.028Z,89.03
2022-09-17T06:44:13.713Z,89.55
2022-09-17T06:46:41.465Z,88.52
2022-09-17T06:49:11.596Z,90.94
2022-09-17T06:51:39.103Z,91.34
2022-09-17T06:54:06.754Z,89.44
2022-09-17T06:56:34.542Z,91.29
2022-09-17T06:59:02.580Z,89.00
2022-09-17T07:01:30.219Z,88.62
2022-09-17T07:03:58.041Z,89.30
2022-09-17T07:06:26.911Z,87.59
2022-09-17T07:08:54.474Z,86.34
2022-09-17T07:11:22.675Z,87.09
2022-09-17T07:13:50.227Z,87.96
2022-09-17T07:16:17.842Z,88.24
2022-09-17T07:18:45.369Z,86.84
2022-09-17T07:21:12.906Z,87.28
2022-09-17T07:23:41.971Z,87.42
2022-09-17T07:26:14.683Z,86.06
2022-09-17T07:28:43.613Z,83.80
2022-09-17T07:31:16.464Z,83.69
2022-09-17T07:33:45.074Z,85.79
2022-09-17T07:36:15.074Z,85.25
2022-09-17T07:38:43.982Z,84.37
2022-09-17T07:41:13.503Z,84.71
2022-09-17T07:43:42.133Z,84.18
2022-09-17T07:46:15.096Z,81.88
2022-09-17T07:48:42.811Z,83.94
2022-09-17T07:51:16.229Z,84.55
2022-09-17T07:53:45.369Z,83.64
2022-09-17T07:56:12.975Z,83.02
2022-09-17T07:58:40.562Z,81.78
2022-09-17T08:01:10.030Z,79.29
2022-09-17T08:03:38.572Z,77.71
2022-09-17T08:06:08.165Z,79.27
2022-09-17T08:08:36.948Z,79.01
2022-09-17T08:11:07.632Z,78.28
2022-09-17T08:13:35.288Z,80.08
2022-09-17T08:16:05.314Z,79.43
2022-09-17T08:18:33.196Z,80.36
2022-09-17T08:21:01.823Z,78.10
2022-09-17T08:23:30.927Z,79.52
2022-09-17T08:26:00.282Z,78.90
2022-09-17T08:28:32.231Z,79.39
2022-09-17T08:31:02.804Z,78.66
2022-09-17T08:33:32.295Z,77.27
2022-09-17T08:36:00.485Z,79.37
2022-09-17T08:38:28.737Z,78.57
2022-09-17T08:41:09.379Z,77.25
2022-09-17T08:43:43.433Z,79.54
2022-09-17T08:46:12.264Z,78.01
2022-09-17T08:48:43.179Z,78.93
2022-09-17T08:51:22.312Z,78.42
2022-09-17T08:53:59.748Z,78.35
2022-09-17T08:56:28.072Z,79.17
2022-09-17T08:59:12.135Z,78.82
2022-09-17T09:01:46.438Z,79.45
2022-09-17T09:04:34.180Z,79.69
2022-09-17T09:07:05.474Z,80.47
2022-09-17T09:09:38.540Z,78.18
2022-09-17T09:12:13.065Z,77.36
2022-09-17T09:14:51.249Z,79.11
2022-09-17T09:17:23.471Z,79.11
2022-09-17T09:19:52.885Z,77.12
2022-09-17T09:22:36.809Z,77.79
2022-09-17T09:25:16.797Z,77.95
2022-09-17T09:27:51.608Z,77.63
2022-09-17T09:30:23.656Z,77.36
2022-09-17T09:32:58.759Z,76.15
2022-09-17T09:35:28.364Z,76.17
2022-09-17T09:38:03.006Z,73.25
2022-09-17T09:40:38.892Z,73.16
2022-09-17T09:43:16.676Z,72.80
2022-09-17T09:46:10.670Z,73.22
2022-09-17T09:48:44.260Z,73.95
2022-09-17T09:51:25.405Z,72.89
2022-09-17T09:54:08.318Z,71.12
2022-09-17T09:57:03.884Z,71.12
2022-09-17T09:59:31.459Z,66.96
2022-09-17T10:02:00.420Z,70.32
2022-09-17T10:04:30.183Z,68.44
2022-09-17T10:07:03.339Z,70.32
2022-09-17T10:09:32.701Z,71.30
2022-09-17T10:12:06.143Z,70.13
2022-09-17T10:14:34.223Z,70.70
2022-09-17T10:17:21.614Z,70.17
2022-09-17T10:20:18.300Z,68.59
2022-09-17T10:22:49.923Z,68.33
2022-09-17T10:25:28.541Z,67.60
2022-09-17T10:27:57.346Z,67.08
2022-09-17T10:30:25.905Z,68.00
2022-09-17T10:33:19.139Z,67.73
2022-09-17T10:35:58.123Z,68.05
2022-09-17T10:38:37.769Z,68.34
2022-09-17T10:41:14.810Z,67.32
2022-09-17T10:43:42.821Z,67.62
2022-09-17T10:46:15.695Z,67.61
2022-09-17T10:48:50.340Z,64.84
2022-09-17T10:51:24.051Z,64.72
2022-09-17T10:54:20.226Z,62.86
2022-09-17T10:56:52.039Z,61.96
2022-09-17T10:59:46.457Z,62.31
2022-09-17T11:02:35.522Z,59.04
2022-09-17T11:05:21.043Z,59.25
2022-09-17T11:07:54.380Z,57.99
2022-09-17T11:10:30.863Z,62.33
2022-09-17T11:13:11.489Z,67.42
2022-09-17T11:15:55.009Z,68.60
2022-09-17T11:18:36.824Z,71.89
2022-09-17T11:21:28.670Z,72.58
2022-09-17T11:24:26.709Z,69.04
2022-09-17T11:27:04.486Z,67.36
2022-09-17T11:29:49.204Z,67.00
2022-09-17T11:32:35.505Z,66.25
2022-09-17T11:35:09.605Z,69.14
2022-09-17T11:37:48.915Z,73.66
2022-09-17T11:40:22.078Z,75.17
2022-09-17T11:42:55.078Z,75.83
2022-09-17T11:45:28.077Z,78.08
2022-09-17T11:48:00.937Z,79.44
2022-09-17T11:50:33.415Z,79.11
2022-09-17T11:53:07.476Z,78.21
2022-09-17T11:55:43.581Z,77.62
2022-09-17T11:58:16.499Z,78.55
2022-09-17T12:00:51.301Z,80.52
2022-09-17T12:03:25.709Z,80.64
2022-09-17T12:05:57.354Z,79.07
2022-09-17T12:08:34.648Z,77.22
2022-09-17T12:11:10.764Z,78.81
2022-09-17T12:13:44.854Z,77.52
2022-09-17T12:16:17.689Z,79.28
2022-09-17T12:18:51.732Z,78.20
2022-09-17T12:21:28.629Z,80.75
2022-09-17T12:24:01.091Z,81.27
2022-09-17T12:26:40.473Z,80.45
2022-09-17T12:29:18.621Z,80.49
2022-09-17T12:31:53.990Z,77.60
2022-09-17T12:34:43.901Z,75.32
2022-09-17T12:37:18.689Z,72.61
2022-09-17T12:40:11.620Z,72.65
2022-09-17T12:42:52.432Z,74.31
2022-09-17T12:45:34.948Z,72.59
2022-09-17T12:48:43.970Z,74.78
2022-09-17T12:51:27.701Z,73.54
2022-09-17T12:53:58.486Z,72.43
2022-09-17T12:56:39.867Z,72.35
2022-09-17T12:59:11.359Z,71.34
2022-09-17T13:01:49.314Z,72.08
2022-09-17T13:04:56.873Z,71.22
2022-09-17T13:07:56.460Z,70.65
2022-09-17T13:11:11.682Z,67.66
2022-09-17T13:13:47.625Z,68.78
2022-09-17T13:16:20.709Z,65.34
2022-09-17T13:19:16.558Z,64.59
2022-09-17T13:21:54.388Z,63.82
2022-09-17T13:24:24.999Z,62.46
2022-09-17T13:26:54.452Z,60.06
2022-09-17T13:30:07.696Z,57.72
2022-09-17T13:32:48.126Z,56.44
2022-09-17T13:35:52.183Z,56.82
2022-09-17T13:38:23.686Z,53.78
2022-09-17T13:40:52.500Z,54.36
2022-09-17T13:43:28.861Z,49.75
2022-09-17T13:46:18.434Z,54.29
2022-09-17T13:48:54.426Z,56.72
2022-09-17T13:51:58.600Z,57.75
2022-09-17T13:54:38.688Z,58.60
2022-09-17T13:57:10.805Z,58.40
2022-09-17T13:59:39.151Z,57.16
2022-09-17T14:02:31.006Z,55.75
2022-09-17T14:05:31.986Z,58.76
2022-09-17T14:08:30.868Z,57.44
2022-09-17T14:11:05.730Z,54.41
2022-09-17T14:13:44.897Z,52.94
2022-09-17T14:16:50.240Z,53.37
2022-09-17T14:19:34.062Z,50.10
2022-09-17T14:22:14.229Z,47.43
2022-09-17T14:24:48.880Z,48.06
2022-09-17T14:27:24.037Z,48.97
2022-09-17T14:30:03.037Z,49.70
2022-09-17T14:32:35.004Z,49.48
2022-09-17T14:35:04.941Z,51.37
2022-09-17T14:37:34.696Z,54.56
2022-09-17T14:40:02.507Z,55.17
2022-09-17T14:42:36.627Z,56.97
2022-09-17T14:45:09.272Z,58.78
2022-09-17T14:47:36.889Z,59.29
2022-09-17T14:50:24.211Z,55.93
2022-09-17T14:52:54.388Z,52.04
2022-09-17T14:55:25.193Z,49.40
2022-09-17T14:57:54.299Z,48.83
2022-09-17T15:00:24.769Z,46.40
2022-09-17T15:02:55.623Z,45.82
2022-09-17T15:05:27.152Z,46.89
2022-09-17T15:08:09.050Z,47.43
2022-09-17T15:10:40.272Z,49.04
2022-09-17T15:13:13.667Z,49.91
2022-09-17T15:15:41.043Z,49.25
2022-09-17T15:18:08.673Z,47.30
2022-09-17T15:20:36.372Z,49.43
2022-09-17T15:23:14.197Z,51.39
2022-09-17T15:25:43.594Z,53.31
2022-09-17T15:28:30.793Z,53.68
2022-09-17T15:30:58.454Z,54.82
2022-09-17T15:33:27.491Z,56.19
2022-09-17T15:36:08.250Z,57.05
2022-09-17T15:38:39.098Z,55.35
2022-09-17T15:41:23.444Z,53.66
2022-09-17T15:43:51.092Z,53.82
2022-09-17T15:46:26.447Z,52.53
2022-09-17T15:48:54.556Z,50.49
2022-09-17T15:51:27.405Z,47.65
2022-09-17T15:53:59.309Z,48.04
2022-09-17T15:56:30.190Z,46.88
2022-09-17T15:59:01.572Z,48.47
2022-09-17T16:01:53.628Z,49.54
2022-09-17T16:04:30.192Z,50.98
2022-09-17T16:07:16.620Z,52.23
2022-09-17T16:09:48.732Z,52.83
2022-09-17T16:12:18.675Z,53.96
2022-09-17T16:14:51.251Z,54.72
2022-09-17T16:17:29.184Z,55.76
2022-09-17T16:19:57.878Z,57.81
2022-09-17T16:22:29.332Z,61.42
2022-09-17T16:24:58.249Z,64.44
2022-09-17T16:27:29.983Z,66.11
2022-09-17T16:30:03.399Z,68.36
2022-09-17T16:32:30.810Z,69.24
2022-09-17T16:34:58.537Z,71.81
2022-09-17T16:37:26.483Z,73.78
2022-09-17T16:39:54.093Z,76.11
2022-09-17T16:42:23.003Z,77.17
2022-09-17T16:44:50.527Z,77.79
2022-09-17T16:47:18.139Z,78.22
2022-09-17T16:49:45.671Z,78.65
2022-09-17T16:52:13.178Z,78.71
2022-09-17T16:54:40.716Z,79.95
2022-09-17T16:57:08.246Z,79.93
2022-09-17T16:59:37.126Z,80.95
2022-09-17T17:02:04.890Z,81.11
2022-09-17T17:04:32.404Z,82.17
2022-09-17T17:07:00.626Z,82.16
2022-09-17T17:09:28.154Z,82.20
2022-09-17T17:11:56.005Z,82.52
2022-09-17T17:14:23.526Z,82.73
2022-09-17T17:16:52.408Z,83.38
2022-09-17T17:19:19.938Z,83.52
2022-09-17T17:21:50.364Z,84.05
2022-09-17T17:24:18.364Z,83.25
2022-09-17T17:26:47.676Z,83.45
2022-09-17T17:29:16.654Z,85.15
2022-09-17T17:31:44.281Z,85.46
2022-09-17T17:34:13.200Z,85.62
2022-09-17T17:36:40.766Z,85.70
2022-09-17T17:39:09.351Z,84.24
2022-09-17T17:41:36.927Z,85.01
2022-09-17T17:44:04.454Z,85.08
2022-09-17T17:46:32.100Z,84.63
2022-09-17T17:48:59.922Z,86.21
2022-09-17T17:51:28.790Z,85.60
2022-09-17T17:53:56.316Z,86.19
2022-09-17T17:56:24.168Z,85.68
2022-09-17T17:58:55.535Z,86.10
2022-09-17T18:01:27.089Z,85.41
2022-09-17T18:03:58.124Z,85.36
2022-09-17T18:06:26.640Z,85.29
2022-09-17T18:08:56.073Z,85.24
2022-09-17T18:11:24.649Z,84.31
2022-09-17T18:13:53.714Z,84.48
2022-09-17T18:16:22.367Z,84.20
2022-09-17T18:18:50.057Z,84.54
2022-09-17T18:21:21.767Z,85.17
2022-09-17T18:23:50.577Z,84.15
2022-09-17T18:26:21.230Z,83.52
2022-09-17T18:28:48.917Z,84.94
2022-09-17T18:31:22.700Z,82.75
2022-09-17T18:33:51.005Z,80.21
2022-09-17T18:36:18.496Z,82.09
2022-09-17T18:38:48.374Z,82.80
2022-09-17T18:41:15.933Z,82.94
2022-09-17T18:43:45.187Z,83.30
2022-09-17T18:46:12.773Z,82.94
2022-09-17T18:48:40.653Z,84.63
2022-09-17T18:51:13.237Z,85.91
2022-09-17T18:53:41.873Z,87.35
2022-09-17T18:56:16.690Z,86.21
2022-09-17T18:58:46.030Z,85.89
2022-09-17T19:01:14.034Z,86.17
2022-09-17T19:03:42.193Z,87.08
2022-09-17T19:06:12.338Z,85.80
2022-09-17T19:08:40.937Z,87.67
2022-09-17T19:11:08.808Z,88.03
2022-09-17T19:13:38.525Z,88.25
2022-09-17T19:16:08.810Z,87.48
2022-09-17T19:18:36.980Z,88.46
2022-09-17T19:21:06.710Z,88.17
2022-09-17T19:23:34.464Z,90.37
2022-09-17T19:26:06.814Z,90.52
2022-09-17T19:28:35.404Z,90.71
2022-09-17T19:31:05.127Z,89.90
2022-09-17T19:33:34.044Z,90.96
2022-09-17T19:36:02.018Z,90.83
2022-09-17T19:38:30.132Z,91.05
2022-09-17T19:40:58.921Z,90.59
2022-09-17T19:43:26.842Z,91.48
2022-09-17T19:46:01.166Z,92.06
2022-09-17T19:48:28.932Z,91.83
2022-09-17T19:50:58.301Z,91.99
2022-09-17T19:53:26.206Z,92.29
2022-09-17T19:55:53.721Z,93.17
2022-09-17T19:58:21.465Z,93.21
2022-09-17T20:00:49.081Z,93.85
2022-09-17T20:03:16.665Z,94.66
2022-09-17T20:05:44.177Z,95.92
2022-09-17T20:08:13.058Z,94.03
2022-09-17T20:10:40.677Z,93.99
2022-09-17T20:13:08.233Z,93.87
2022-09-17T20:15:36.295Z,94.61
2022-09-17T20:18:03.942Z,94.55
2022-09-17T20:20:31.516Z,94.54
2022-09-17T20:22:59.023Z,94.37
2022-09-17T20:25:28.895Z,94.24
2022-09-17T20:27:56.435Z,94.47
2022-09-17T20:30:24.004Z,91.75
2022-09-17T20:32:51.520Z,90.94
2022-09-17T20:35:19.061Z,91.15
2022-09-17T20:40:35.449Z,91.59
2022-09-17T20:43:02.994Z,91.74
2022-09-17T20:45:30.501Z,92.99
2022-09-17T20:47:58.092Z,91.38
2022-09-17T20:50:25.631Z,92.59
2022-09-17T20:52:53.132Z,92.46
2022-09-17T20:55:21.390Z,90.79
2022-09-17T20:57:53.476Z,91.34
2022-09-17T21:00:21.489Z,91.48
2022-09-17T21:02:51.685Z,91.33
2022-09-17T21:05:19.264Z,92.50
2022-09-17T21:07:46.801Z,91.88
2022-09-17T21:10:14.444Z,92.17
2022-09-17T21:12:42.241Z,91.17
2022-09-17T21:15:11.808Z,92.34
2022-09-17T21:17:40.595Z,91.27
2022-09-17T21:20:09.017Z,91.43
2022-09-17T21:22:36.520Z,91.72
2022-09-17T21:25:04.212Z,92.43
2022-09-17T21:27:32.423Z,92.78
2022-09-17T21:30:00.034Z,92.95
2022-09-17T21:32:28.930Z,92.92
2022-09-17T21:34:56.732Z,90.56
2022-09-17T21:37:24.963Z,91.24
2022-09-17T21:39:52.809Z,91.72
2022-09-17T21:42:20.474Z,91.44
2022-09-17T21:44:47.983Z,90.75
2022-09-17T21:47:15.507Z,91.20
2022-09-17T21:49:44.672Z,92.04
2022-09-17T21:52:12.184Z,91.99
2022-09-17T21:54:39.728Z,92.12
2022-09-17T21:57:07.212Z,91.97
2022-09-17T21:59:34.708Z,92.39
2022-09-17T22:02:02.300Z,91.87
2022-09-17T22:04:29.896Z,92.31
2022-09-17T22:06:59.171Z,92.23
2022-09-17T22:09:26.787Z,91.62
2022-09-17T22:11:54.758Z,90.91
2022-09-17T22:14:24.250Z,91.79
2022-09-17T22:16:53.447Z,92.49
2022-09-17T22:19:22.919Z,91.66
2022-09-17T22:21:52.154Z,91.08
2022-09-17T22:24:22.590Z,90.53
2022-09-17T22:26:56.977Z,90.24
2022-09-17T22:29:26.320Z,89.65
2022-09-17T22:31:54.008Z,89.06
2022-09-17T22:34:23.189Z,88.69
2022-09-17T22:36:50.891Z,89.04
2022-09-17T22:39:22.525Z,89.14
2022-09-17T22:41:50.441Z,88.47
2022-09-17T22:44:19.627Z,89.00
2022-09-17T22:46:49.501Z,87.55
2022-09-17T22:49:17.249Z,88.92
2022-09-17T22:51:46.532Z,89.14
2022-09-17T22:54:15.729Z,88.51
2022-09-17T22:56:45.210Z,87.89
2022-09-17T22:59:12.776Z,88.47
2022-09-17T23:01:41.632Z,87.95
2022-09-17T23:04:09.340Z,87.64
2022-09-17T23:06:38.888Z,87.12
2022-09-17T23:09:07.323Z,88.34
2022-09-17T23:11:37.292Z,87.52
2022-09-17T23:14:09.449Z,87.66
2022-09-17T23:16:39.606Z,88.46
2022-09-17T23:19:07.261Z,89.54
2022-09-17T23:21:34.977Z,88.25
2022-09-17T23:24:03.504Z,87.88
2022-09-17T23:26:31.578Z,86.95
2022-09-17T23:29:04.360Z,87.25
2022-09-17T23:31:35.519Z,85.97
2022-09-17T23:34:03.958Z,87.24
2022-09-17T23:36:33.186Z,87.76
2022-09-17T23:39:02.122Z,86.93
2022-09-17T23:41:32.156Z,86.39
2022-09-17T23:44:02.073Z,85.99
2022-09-17T23:46:32.133Z,86.21
2022-09-17T23:49:01.322Z,87.06
2022-09-17T23:51:30.873Z,86.12
2022-09-17T23:53:59.334Z,85.80
2022-09-17T23:56:28.384Z,85.37
2022-09-17T23:58:57.506Z,84.86
